Station Historical Data
 
Daily Summary for September 25, 2017 Units:  English    Metric   Both
« Previous Day
Next Day »
Daily Weekly Monthly Yearly Custom
  Current: High: Low: Average:
Temperature: 82.3 °F 87.0 °F 64.3 °F 74.3 °F
Dew Point: 66.5 °F 71.9 °F 63.4 °F 67.5 °F
Humidity: 59 % 98 % 53 % 82 %
Wind Speed: 1.0 mph 3.5 mph 0.0 mph 0.6 mph
Wind Gust: 1.0 mph 3.5 mph - -
Wind:South - - South
Pressure: 29.92 in 30.04 in 29.92 in -
Precipitation: 0.00 in      
Historical Graphs
 
 
Tabular Data for September 25, 2017
Time Temperature Dew Point Pressure Wind Wind Speed Wind Gust Humidity Rainfall Rate (Hourly) solar Conditions
00:02 70.1 °F 68.6 °F 29.99 in Calm     95 % 0.00 in 0.0 W/m2 SCT
00:07 70.0 °F 68.5 °F 29.99 in Calm     95 % 0.00 in 0.0 W/m2 SCT
00:12 69.9 °F 68.4 °F 29.98 in Calm     95 % 0.00 in 0.0 W/m2 SCT
00:17 69.8 °F 68.3 °F 29.99 in Calm     95 % 0.00 in 0.0 W/m2 SCT
00:22 69.6 °F 68.1 °F 29.99 in Calm     95 % 0.00 in 0.0 W/m2 SCT
00:27 69.6 °F 68.1 °F 29.98 in Calm     95 % 0.00 in 0.0 W/m2 SCT
00:32 69.5 °F 68.0 °F 29.99 in Calm     95 % 0.00 in 0.0 W/m2 SCT
00:37 69.5 °F 68.0 °F 29.99 in Calm     95 % 0.00 in 0.0 W/m2 SCT
00:42 69.4 °F 67.9 °F 29.99 in Calm     95 % 0.00 in 0.0 W/m2 SCT
00:47 69.4 °F 67.9 °F 29.99 in Calm     95 % 0.00 in 0.0 W/m2 SCT
00:52 69.4 °F 67.9 °F 29.99 in Calm     95 % 0.00 in 0.0 W/m2 SCT
00:54 69.4 °F 67.9 °F 29.99 in Calm     95 % 0.00 in 0.0 W/m2 SCT
00:59 69.3 °F 67.8 °F 29.99 in Calm     95 % 0.00 in 0.0 W/m2 SCT
01:04 69.3 °F 67.8 °F 29.99 in Calm     95 % 0.00 in 0.0 W/m2 SCT
01:09 69.1 °F 67.6 °F 29.99 in Calm     95 % 0.00 in 0.0 W/m2 SCT
01:14 69.1 °F 67.6 °F 29.99 in Calm     95 % 0.00 in 0.0 W/m2 SCT
01:19 69.0 °F 67.5 °F 29.99 in Calm     95 % 0.00 in 0.0 W/m2 SCT
01:24 68.9 °F 67.4 °F 29.99 in Calm     95 % 0.00 in 0.0 W/m2 SCT
01:29 68.9 °F 67.4 °F 29.99 in Calm     95 % 0.00 in 0.0 W/m2 SCT
01:34 68.7 °F 67.2 °F 29.99 in Calm     95 % 0.00 in 0.0 W/m2 SCT
01:37 68.6 °F 67.1 °F 29.99 in Calm     95 % 0.00 in 0.0 W/m2 SCT
01:42 68.3 °F 66.8 °F 29.99 in Calm     95 % 0.00 in 0.0 W/m2 SCT
01:47 68.2 °F 66.7 °F 29.99 in Calm     95 % 0.00 in 0.0 W/m2 SCT
01:52 68.1 °F 66.6 °F 29.98 in Calm     95 % 0.00 in 0.0 W/m2 SCT
01:57 67.9 °F 66.7 °F 29.98 in Calm     96 % 0.00 in 0.0 W/m2 SCT
02:02 67.9 °F 66.7 °F 29.98 in Calm     96 % 0.00 in 0.0 W/m2 SCT
02:07 67.9 °F 66.7 °F 29.98 in Calm     96 % 0.00 in 0.0 W/m2 SCT
02:12 67.9 °F 66.7 °F 29.98 in Calm     96 % 0.00 in 0.0 W/m2 SCT
02:17 67.9 °F 66.7 °F 29.98 in Calm     96 % 0.00 in 0.0 W/m2 SCT
02:22 67.8 °F 66.6 °F 29.98 in Calm     96 % 0.00 in 0.0 W/m2 SCT
02:27 67.7 °F 66.5 °F 29.98 in Calm     96 % 0.00 in 0.0 W/m2 SCT
02:32 67.7 °F 66.5 °F 29.98 in Calm     96 % 0.00 in 0.0 W/m2 SCT
02:37 67.6 °F 66.4 °F 29.98 in Calm     96 % 0.00 in 0.0 W/m2 SCT
02:42 67.5 °F 66.3 °F 29.98 in Calm     96 % 0.00 in 0.0 W/m2 SCT
02:47 67.4 °F 66.2 °F 29.98 in Calm     96 % 0.00 in 0.0 W/m2 SCT
02:52 67.3 °F 66.1 °F 29.98 in Calm     96 % 0.00 in 0.0 W/m2 SCT
02:57 67.3 °F 66.1 °F 29.99 in Calm     96 % 0.00 in 0.0 W/m2 SCT
03:02 67.2 °F 66.0 °F 29.99 in Calm     96 % 0.00 in 0.0 W/m2 SCT
03:07 67.2 °F 66.0 °F 29.99 in Calm     96 % 0.00 in 0.0 W/m2 SCT
03:12 67.3 °F 66.1 °F 29.99 in Calm     96 % 0.00 in 0.0 W/m2 SCT
03:17 67.2 °F 66.0 °F 29.99 in Calm     96 % 0.00 in 0.0 W/m2 SCT
03:22 67.2 °F 66.0 °F 29.99 in Calm     96 % 0.00 in 0.0 W/m2 SCT
03:27 66.8 °F 65.6 °F 29.99 in Calm     96 % 0.00 in 0.0 W/m2 SCT
03:32 66.5 °F 65.3 °F 29.99 in Calm     96 % 0.00 in 0.0 W/m2 SCT
03:37 66.3 °F 65.1 °F 29.99 in Calm     96 % 0.00 in 0.0 W/m2 SCT
03:42 66.3 °F 65.1 °F 29.99 in Calm     96 % 0.00 in 0.0 W/m2 SCT
03:47 66.2 °F 65.0 °F 29.99 in Calm     96 % 0.00 in 0.0 W/m2 SCT
03:52 66.2 °F 65.0 °F 29.99 in Calm     96 % 0.00 in 0.0 W/m2 SCT
03:57 66.1 °F 64.9 °F 29.99 in Calm     96 % 0.00 in 0.0 W/m2 SCT
04:02 65.9 °F 65.0 °F 30.00 in Calm     97 % 0.00 in 0.0 W/m2 SCT
04:07 65.9 °F 65.0 °F 29.99 in Calm     97 % 0.00 in 0.0 W/m2 SCT
04:17 65.8 °F 64.9 °F 30.00 in Calm     97 % 0.00 in 0.0 W/m2 SCT
04:22 65.8 °F 64.9 °F 29.99 in Calm     97 % 0.00 in 0.0 W/m2 SCT
04:27 65.8 °F 64.9 °F 30.00 in Calm     97 % 0.00 in 0.0 W/m2 SCT
04:32 66.1 °F 65.2 °F 30.00 in Calm     97 % 0.00 in 0.0 W/m2 SCT
04:37 66.2 °F 65.3 °F 29.99 in Calm     97 % 0.00 in 0.0 W/m2 SCT
04:42 65.9 °F 65.0 °F 30.00 in Calm     97 % 0.00 in 0.0 W/m2 SCT
04:47 65.8 °F 64.9 °F 30.00 in Calm     97 % 0.00 in 0.0 W/m2 SCT
04:52 65.9 °F 65.0 °F 30.00 in Calm     97 % 0.00 in 0.0 W/m2 SCT
04:57 65.9 °F 65.0 °F 30.00 in Calm     97 % 0.00 in 0.0 W/m2 SCT
05:07 65.9 °F 65.0 °F 30.00 in Calm     97 % 0.00 in 0.0 W/m2 SCT
05:12 65.8 °F 64.9 °F 30.00 in Calm     97 % 0.00 in 0.0 W/m2 SCT
05:17 65.8 °F 64.9 °F 30.00 in Calm     97 % 0.00 in 0.0 W/m2 SCT
05:22 65.8 °F 64.9 °F 30.00 in Calm     97 % 0.00 in 0.0 W/m2 SCT
05:27 65.9 °F 65.0 °F 30.00 in Calm     97 % 0.00 in 0.0 W/m2 SCT
05:32 66.0 °F 65.1 °F 30.00 in Calm     97 % 0.00 in 0.0 W/m2 SCT
05:37 65.9 °F 65.0 °F 30.00 in Calm     97 % 0.00 in 0.0 W/m2 SCT
05:42 65.8 °F 64.9 °F 30.00 in Calm     97 % 0.00 in 0.0 W/m2 SCT
05:47 65.7 °F 64.8 °F 30.01 in Calm     97 % 0.00 in 0.0 W/m2 SCT
05:52 65.6 °F 64.7 °F 30.01 in Calm     97 % 0.00 in 0.0 W/m2 SCT
05:57 65.3 °F 64.4 °F 30.01 in Calm     97 % 0.00 in 0.0 W/m2 SCT
06:02 64.9 °F 63.7 °F 30.01 in Calm     96 % 0.00 in 0.0 W/m2 SCT
06:07 64.7 °F 63.5 °F 30.01 in Calm     96 % 0.00 in 0.0 W/m2 SCT
06:12 64.6 °F 63.7 °F 30.01 in Calm     97 % 0.00 in 0.0 W/m2 SCT
06:17 64.5 °F 63.6 °F 30.01 in Calm     97 % 0.00 in 0.0 W/m2 SCT
06:22 64.6 °F 63.7 °F 30.02 in Calm     97 % 0.00 in 0.0 W/m2 SCT
06:27 64.6 °F 63.7 °F 30.02 in Calm     97 % 0.00 in 0.0 W/m2 SCT
06:32 64.5 °F 63.6 °F 30.02 in Calm     97 % 0.00 in 0.0 W/m2 SCT
06:37 64.7 °F 63.8 °F 30.02 in Calm     97 % 0.00 in 0.0 W/m2 SCT
06:42 64.8 °F 63.9 °F 30.03 in Calm     97 % 0.00 in 0.0 W/m2 SCT
06:47 64.6 °F 63.7 °F 30.03 in Calm     97 % 0.00 in 0.0 W/m2 SCT
06:52 64.5 °F 63.6 °F 30.03 in Calm     97 % 0.00 in 0.0 W/m2 SCT
06:57 64.4 °F 63.5 °F 30.03 in Calm     97 % 0.00 in 0.0 W/m2 SCT
07:02 64.3 °F 63.4 °F 30.03 in Calm     97 % 0.00 in 5.0 W/m2 CLR
07:07 64.3 °F 63.4 °F 30.03 in Calm     97 % 0.00 in 5.0 W/m2 CLR
07:12 64.3 °F 63.4 °F 30.04 in Calm     97 % 0.00 in 7.0 W/m2 CLR
07:17 64.4 °F 63.5 °F 30.03 in Calm     97 % 0.00 in 14.0 W/m2 CLR
07:22 64.5 °F 63.6 °F 30.03 in Calm     97 % 0.00 in 18.0 W/m2 CLR
07:27 64.6 °F 63.7 °F 30.03 in Calm     97 % 0.00 in 19.0 W/m2 CLR
07:32 64.9 °F 64.0 °F 30.03 in Calm     97 % 0.00 in 23.0 W/m2 CLR
07:37 65.2 °F 64.3 °F 30.03 in Calm     97 % 0.00 in 25.0 W/m2 CLR
07:42 65.4 °F 64.8 °F 30.03 in Calm     98 % 0.00 in 26.0 W/m2 CLR
07:47 65.6 °F 64.7 °F 30.03 in Calm     97 % 0.00 in 30.0 W/m2 CLR
07:52 65.9 °F 65.0 °F 30.03 in Calm     97 % 0.00 in 32.0 W/m2 CLR
07:57 66.2 °F 65.3 °F 30.03 in Calm     97 % 0.00 in 33.0 W/m2 CLR
08:02 66.5 °F 65.6 °F 30.03 in Calm     97 % 0.00 in 39.0 W/m2 CLR
08:07 66.7 °F 65.5 °F 30.03 in Calm     96 % 0.00 in 40.0 W/m2 CLR
08:12 66.8 °F 65.6 °F 30.03 in Calm     96 % 0.00 in 40.0 W/m2 CLR
08:17 67.2 °F 66.0 °F 30.03 in Calm     96 % 0.00 in 40.0 W/m2 CLR
08:22 67.8 °F 66.6 °F 30.03 in Calm     96 % 0.00 in 42.0 W/m2 CLR
08:27 68.4 °F 66.9 °F 30.04 in Calm     95 % 0.00 in 44.0 W/m2 CLR
08:29 68.6 °F 67.1 °F 30.03 in Calm     95 % 0.00 in 44.0 W/m2 CLR
08:34 69.2 °F 67.4 °F 30.04 in Calm     94 % 0.00 in 46.0 W/m2 CLR
08:39 69.9 °F 67.5 °F 30.04 in Calm     92 % 0.00 in 47.0 W/m2 CLR
08:44 70.1 °F 68.0 °F 30.04 in Calm     93 % 0.00 in 49.0 W/m2 CLR
08:49 70.6 °F 67.8 °F 30.04 in Calm     91 % 0.00 in 51.0 W/m2 CLR
08:54 71.2 °F 68.4 °F 30.04 in Calm     91 % 0.00 in 51.0 W/m2 CLR
08:59 71.4 °F 68.3 °F 30.03 in Calm     90 % 0.00 in 54.0 W/m2 CLR
09:04 71.8 °F 68.4 °F 30.04 in Calm     89 % 0.00 in 70.0 W/m2 CLR
09:09 72.1 °F 68.7 °F 30.04 in Calm     89 % 0.00 in 130.0 W/m2 CLR
09:14 72.7 °F 69.3 °F 30.04 in Calm     89 % 0.00 in 53.0 W/m2 CLR
09:19 73.0 °F 69.6 °F 30.04 in Calm     89 % 0.00 in 69.0 W/m2 CLR
09:24 72.8 °F 69.4 °F 30.04 in Calm     89 % 0.00 in 65.0 W/m2 CLR
09:29 73.3 °F 69.2 °F 30.04 in Calm     87 % 0.00 in 63.0 W/m2 CLR
09:34 74.1 °F 69.0 °F 30.04 in Calm     84 % 0.00 in 188.0 W/m2 CLR
09:39 74.2 °F 69.7 °F 30.04 in Calm     86 % 0.00 in 373.0 W/m2 CLR
09:44 74.3 °F 70.2 °F 30.04 in Calm     87 % 0.00 in 450.0 W/m2 CLR
09:49 74.9 °F 69.7 °F 30.04 in Calm     84 % 0.00 in 512.0 W/m2 CLR
09:54 75.2 °F 70.0 °F 30.04 in Calm     84 % 0.00 in 524.0 W/m2 CLR
09:59 76.0 °F 70.5 °F 30.04 in Calm     83 % 0.00 in 534.0 W/m2 CLR
10:04 76.6 °F 70.3 °F 30.04 in Calm     81 % 0.00 in 547.0 W/m2 SCT
10:09 76.6 °F 70.3 °F 30.04 in Calm     81 % 0.00 in 555.0 W/m2 SCT
10:14 76.6 °F 70.0 °F 30.04 in Calm     80 % 0.00 in 568.0 W/m2 SCT
10:19 77.7 °F 70.3 °F 30.04 in WNW 2.3 mph 2.3 mph 78 % 0.00 in 578.0 W/m2 SCT
10:24 77.9 °F 70.1 °F 30.04 in North 1.2 mph 1.2 mph 77 % 0.00 in 591.0 W/m2 SCT
10:29 78.6 °F 71.5 °F 30.04 in North 1.0 mph 1.0 mph 79 % 0.00 in 601.0 W/m2 SCT
10:34 78.4 °F 69.8 °F 30.03 in North 1.2 mph 1.2 mph 75 % 0.00 in 613.0 W/m2 SCT
10:39 79.3 °F 69.9 °F 30.04 in Calm   0.3 mph 73 % 0.00 in 619.0 W/m2 CLR
10:44 78.9 °F 70.7 °F 30.04 in NNW 2.3 mph 2.3 mph 76 % 0.00 in 624.0 W/m2 CLR
10:50 79.6 °F 70.6 °F 30.03 in NNW 1.2 mph 1.2 mph 74 % 0.00 in 615.0 W/m2 CLR
10:55 79.7 °F 70.3 °F 30.03 in North 1.2 mph 1.2 mph 73 % 0.00 in 652.0 W/m2 CLR
11:00 80.7 °F 70.8 °F 30.04 in North 1.2 mph 1.2 mph 72 % 0.00 in 659.0 W/m2 CLR
11:05 81.1 °F 71.2 °F 30.03 in NW 1.2 mph 1.2 mph 72 % 0.00 in 664.0 W/m2 CLR
11:10 80.5 °F 70.6 °F 30.03 in North 1.2 mph 1.2 mph 72 % 0.00 in 684.0 W/m2 CLR
11:15 80.5 °F 71.4 °F 30.03 in North 2.3 mph 2.3 mph 74 % 0.00 in 686.0 W/m2 CLR
11:20 81.5 °F 69.9 °F 30.03 in ENE 1.2 mph 1.2 mph 68 % 0.00 in 694.0 W/m2 CLR
11:25 82.0 °F 70.4 °F 30.03 in ENE 1.2 mph 1.2 mph 68 % 0.00 in 700.0 W/m2 CLR
11:30 82.6 °F 69.6 °F 30.03 in NNE 2.3 mph 2.3 mph 65 % 0.00 in 708.0 W/m2 CLR
11:35 82.7 °F 69.3 °F 30.03 in North 2.3 mph 2.3 mph 64 % 0.00 in 712.0 W/m2 CLR
11:40 82.6 °F 67.3 °F 30.03 in SE 2.3 mph 2.3 mph 60 % 0.00 in 717.0 W/m2 CLR
11:45 83.0 °F 71.3 °F 30.02 in South 2.3 mph 2.3 mph 68 % 0.00 in 724.0 W/m2 CLR
11:50 83.1 °F 68.7 °F 30.02 in WSW 2.3 mph 2.3 mph 62 % 0.00 in 721.0 W/m2 CLR
11:55 83.1 °F 70.1 °F 30.01 in SE 1.2 mph 1.2 mph 65 % 0.00 in 726.0 W/m2 CLR
12:00 83.0 °F 70.9 °F 30.01 in SE 2.3 mph 2.3 mph 67 % 0.00 in 738.0 W/m2 CLR
12:05 83.8 °F 69.4 °F 30.01 in SE 1.2 mph 1.2 mph 62 % 0.00 in 735.0 W/m2 FEW
12:10 84.1 °F 69.7 °F 30.01 in Calm     62 % 0.00 in 803.0 W/m2 FEW
12:15 84.8 °F 71.3 °F 30.01 in NNW 2.3 mph 2.3 mph 64 % 0.00 in 816.0 W/m2 FEW
12:20 84.0 °F 71.0 °F 30.01 in NNW 2.3 mph 2.3 mph 65 % 0.00 in 786.0 W/m2 FEW
12:25 83.7 °F 69.3 °F 30.01 in North 2.3 mph 2.3 mph 62 % 0.00 in 450.0 W/m2 FEW
12:30 83.7 °F 69.3 °F 30.01 in NNW 2.0 mph 2.0 mph 62 % 0.00 in 710.0 W/m2 FEW
12:35 83.7 °F 69.3 °F 30.01 in NNW 2.3 mph 2.3 mph 62 % 0.00 in 710.0 W/m2 FEW
12:40 83.3 °F 68.4 °F 30.01 in NW 1.2 mph 1.2 mph 61 % 0.00 in 186.0 W/m2 FEW
12:45 83.1 °F 69.7 °F 30.00 in Calm     64 % 0.00 in 195.0 W/m2 FEW
12:50 82.3 °F 71.5 °F 30.00 in NW 1.2 mph 1.2 mph 70 % 0.00 in 211.0 W/m2 FEW
12:55 83.5 °F 69.1 °F 30.00 in WSW 2.3 mph 2.3 mph 62 % 0.00 in 780.0 W/m2 FEW
13:00 84.5 °F 70.5 °F 30.00 in West 1.2 mph 1.2 mph 63 % 0.00 in 772.0 W/m2 FEW
13:05 84.8 °F 68.9 °F 29.99 in WSW 2.3 mph 2.3 mph 59 % 0.00 in 782.0 W/m2 SCT
13:10 85.1 °F 70.1 °F 29.99 in NW 1.2 mph 1.2 mph 61 % 0.00 in 765.0 W/m2 SCT
13:15 85.4 °F 69.4 °F 29.99 in South 2.3 mph 2.3 mph 59 % 0.00 in 761.0 W/m2 SCT
13:20 85.3 °F 68.3 °F 29.99 in South 2.3 mph 2.3 mph 57 % 0.00 in 772.0 W/m2 SCT
13:25 85.5 °F 70.0 °F 29.99 in Calm     60 % 0.00 in 793.0 W/m2 SCT
13:30 85.6 °F 71.1 °F 29.98 in ENE 2.3 mph 2.3 mph 62 % 0.00 in 805.0 W/m2 SCT
13:35 85.4 °F 69.4 °F 29.98 in East 2.3 mph 2.3 mph 59 % 0.00 in 798.0 W/m2 SCT
13:40 86.1 °F 68.6 °F 29.98 in WSW 3.5 mph 3.5 mph 56 % 0.00 in 816.0 W/m2 SCT
13:45 86.0 °F 71.9 °F 29.97 in NE 3.5 mph 3.5 mph 63 % 0.00 in 814.0 W/m2 SCT
13:50 85.5 °F 69.5 °F 29.97 in NE 2.3 mph 2.3 mph 59 % 0.00 in 190.0 W/m2 SCT
13:55 84.0 °F 70.0 °F 29.97 in NE 1.2 mph 1.2 mph 63 % 0.00 in 174.0 W/m2 SCT
14:00 84.6 °F 70.1 °F 29.97 in NE 2.3 mph 2.3 mph 62 % 0.00 in 758.0 W/m2 SCT
14:05 85.7 °F 69.7 °F 29.96 in North 2.3 mph 2.3 mph 59 % 0.00 in 761.0 W/m2 FEW
14:10 86.1 °F 68.6 °F 29.96 in West 2.3 mph 2.3 mph 56 % 0.00 in 770.0 W/m2 FEW
14:15 86.2 °F 69.2 °F 29.96 in NNE 2.3 mph 2.3 mph 57 % 0.00 in 735.0 W/m2 FEW
14:20 84.9 °F 68.5 °F 29.96 in NE 2.3 mph 2.3 mph 58 % 0.00 in 183.0 W/m2 FEW
14:25 84.3 °F 69.4 °F 29.95 in SSE 3.5 mph 3.5 mph 61 % 0.00 in 142.0 W/m2 FEW
14:30 82.7 °F 68.8 °F 29.96 in NNE 1.2 mph   63 % 0.00 in 113.0 W/m2 FEW
14:35 82.1 °F 69.2 °F 29.95 in NNE 1.2 mph 1.2 mph 65 % 0.00 in 63.0 W/m2 FEW
14:40 81.7 °F 69.7 °F 29.95 in NNE 1.2 mph 1.2 mph 67 % 0.00 in 178.0 W/m2 FEW
14:45 82.2 °F 70.6 °F 29.95 in Calm     68 % 0.00 in 647.0 W/m2 FEW
14:50 84.8 °F 66.8 °F 29.95 in North 1.2 mph 1.2 mph 55 % 0.00 in 84.0 W/m2 FEW
14:55 86.1 °F 67.0 °F 29.95 in Calm     53 % 0.00 in 631.0 W/m2 FEW
15:00 87.0 °F 68.3 °F 29.95 in Calm     54 % 0.00 in 615.0 W/m2 SCT
15:05 86.4 °F 67.8 °F 29.94 in Calm     54 % 0.00 in 608.0 W/m2 SCT
15:10 86.3 °F 67.7 °F 29.94 in South 3.5 mph 3.5 mph 54 % 0.00 in 596.0 W/m2 SCT
15:15 86.0 °F 66.9 °F 29.94 in South 1.2 mph 1.2 mph 53 % 0.00 in 584.0 W/m2 SCT
15:20 86.4 °F 67.8 °F 29.94 in South 1.0 mph 1.0 mph 54 % 0.00 in 577.0 W/m2 SCT
15:25 86.7 °F 68.1 °F 29.94 in Calm     54 % 0.00 in 552.0 W/m2 SCT
15:30 86.1 °F 68.0 °F 29.93 in SE 2.3 mph 2.3 mph 55 % 0.00 in 529.0 W/m2 SCT
15:35 85.7 °F 68.7 °F 29.93 in South 2.3 mph 2.3 mph 57 % 0.00 in 497.0 W/m2 SCT
15:40 84.8 °F 67.4 °F 29.93 in South 1.2 mph 1.2 mph 56 % 0.00 in 58.0 W/m2 SCT
15:45 84.9 °F 69.0 °F 29.93 in South 1.2 mph   59 % 0.00 in 478.0 W/m2 SCT
15:50 85.4 °F 69.9 °F 29.93 in Calm     60 % 0.00 in 461.0 W/m2 SCT
15:55 85.1 °F 71.5 °F 29.93 in Calm     64 % 0.00 in 452.0 W/m2 SCT
16:00 85.5 °F 68.0 °F 29.92 in Calm     56 % 0.00 in 445.0 W/m2 SCT
16:05 85.9 °F 68.4 °F 29.93 in ESE 3.5 mph 3.5 mph 56 % 0.00 in 429.0 W/m2 SCT
16:10 85.8 °F 69.3 °F 29.92 in ENE 1.2 mph 1.2 mph 58 % 0.00 in 431.0 W/m2 SCT
16:15 85.1 °F 69.7 °F 29.92 in SW 1.2 mph 1.2 mph 60 % 0.00 in 399.0 W/m2 SCT
16:20 84.1 °F 69.2 °F 29.93 in North 2.3 mph 2.3 mph 61 % 0.00 in 93.0 W/m2 SCT
16:25 83.5 °F 68.2 °F 29.92 in West 1.2 mph 1.2 mph 60 % 0.00 in 67.0 W/m2 SCT
16:30 83.2 °F 68.3 °F 29.92 in West 1.2 mph 1.2 mph 61 % 0.00 in 53.0 W/m2 SCT
16:35 83.3 °F 68.4 °F 29.92 in WSW 1.2 mph 1.2 mph 61 % 0.00 in 53.0 W/m2 SCT
16:40 83.1 °F 68.7 °F 29.92 in Calm     62 % 0.00 in 44.0 W/m2 SCT
16:45 83.2 °F 68.8 °F 29.92 in Calm     62 % 0.00 in 42.0 W/m2 SCT
16:50 83.4 °F 68.1 °F 29.92 in WSW 1.2 mph   60 % 0.00 in 44.0 W/m2 SCT
16:55 83.5 °F 69.6 °F 29.92 in WSW 1.2 mph   63 % 0.00 in 49.0 W/m2 SCT
17:00 83.6 °F 69.2 °F 29.92 in South 1.2 mph 1.2 mph 62 % 0.00 in 37.0 W/m2 FEW
17:05 82.9 °F 69.0 °F 29.92 in Calm     63 % 0.00 in 44.0 W/m2 FEW
17:10 82.5 °F 68.6 °F 29.92 in South 1.2 mph 1.2 mph 63 % 0.00 in 32.0 W/m2 FEW
17:15 82.4 °F 68.5 °F 29.92 in Calm     63 % 0.00 in 32.0 W/m2 FEW
17:20 82.3 °F 66.5 °F 29.92 in South 1.0 mph 1.0 mph 59 % 0.00 in 30.0 W/m2 FEW
Murfreesboro Weather Live
Compliments of Weather Underground - 2.25 mb